Terminal Aerodrome Forecast
Issued by NWS

Home | Current Version | Previous Version | Text Only | Print | Product List | Glossary On
Versions: 1 2 3 4 5 6 7 8 9 10 11 12 13 14 15
000
FTUS45 KFGZ 190000 AAB
TAFPGA
TAF AMD
KPGA 190059Z 1901/1924 35010G16KT P6SM BKN110
      TEMPO 1901/1902 36015G35KT
     FM190200 VRB05KT P6SM FEW110=

USA.gov is the U.S. government's official web portal to all federal, state and local government web resources and services.